Time;durP1;ratioP1;P1;durP2;ratioP2;P2;SDS_P1;SDS_P2;PMS_P1;PMS_P2;Temp;Humidity;BMP_temperature;BMP_pressure;BME280_temperature;BME280_humidity;BME280_pressure;Samples;Min_cycle;Max_cycle;Signal;HPM_P1;HPM_P2
2024/03/28 00:01:07;;;;;;;27.30;20.50;;;;;;;7.01;100.00;100959.66;105889;1254;61234;-76
2024/03/28 00:03:34;;;;;;;31.20;19.50;;;;;;;6.99;100.00;100958.54;105848;1252;61252;-73
2024/03/28 00:06:03;;;;;;;23.90;17.50;;;;;;;6.96;100.00;100960.20;105720;1254;74441;-72
2024/03/28 00:08:31;;;;;;;25.30;19.40;;;;;;;6.92;100.00;100957.05;105942;1256;63647;-74
2024/03/28 00:10:58;;;;;;;26.70;18.80;;;;;;;6.88;100.00;100958.42;105860;1254;71664;-74
2024/03/28 00:13:25;;;;;;;26.60;18.60;;;;;;;6.87;100.00;100958.83;105850;1254;62073;-74
2024/03/28 00:16:02;;;;;;;25.60;17.20;;;;;;;6.86;100.00;100951.20;105838;1253;61237;-73
2024/03/28 00:18:29;;;;;;;23.00;17.20;;;;;;;6.85;100.00;100950.73;105852;1254;73037;-73
2024/03/28 00:21:00;;;;;;;20.70;16.30;;;;;;;6.83;100.00;100949.58;105863;1252;62327;-74
2024/03/28 00:23:27;;;;;;;22.30;17.40;;;;;;;6.80;100.00;100948.99;105888;1254;72897;-74
2024/03/28 00:25:54;;;;;;;23.00;16.40;;;;;;;6.80;100.00;100948.15;105802;1256;61241;-74
2024/03/28 00:28:21;;;;;;;25.90;18.60;;;;;;;6.80;100.00;100949.34;105735;1256;61253;-73
2024/03/28 00:30:48;;;;;;;22.20;17.30;;;;;;;6.80;100.00;100945.70;105739;1252;73278;-74
2024/03/28 00:33:15;;;;;;;25.50;17.20;;;;;;;6.79;100.00;100945.39;105898;1256;63761;-72
2024/03/28 00:35:46;;;;;;;21.10;17.90;;;;;;;6.80;100.00;100946.58;105800;1254;71422;-73
2024/03/28 00:38:14;;;;;;;26.50;17.50;;;;;;;6.81;100.00;100944.63;105805;1254;61961;-73
2024/03/28 00:40:47;;;;;;;22.90;17.20;;;;;;;6.79;100.00;100944.52;105839;1254;61259;-75
2024/03/28 00:43:14;;;;;;;26.60;16.60;;;;;;;6.81;100.00;100947.23;105844;1255;72677;-75
2024/03/28 00:45:41;;;;;;;24.40;17.20;;;;;;;6.82;100.00;100951.17;105864;1252;64114;-72
2024/03/28 00:48:08;;;;;;;26.10;18.90;;;;;;;6.82;100.00;100948.73;105869;1254;72669;-73
2024/03/28 00:50:35;;;;;;;25.30;18.00;;;;;;;6.84;100.00;100949.54;105813;1252;61240;-74
2024/03/28 00:53:03;;;;;;;26.40;18.20;;;;;;;6.83;100.00;100945.08;105856;1256;61205;-74
2024/03/28 00:55:30;;;;;;;25.10;17.00;;;;;;;6.82;100.00;100944.58;105854;1254;74529;-74
2024/03/28 00:57:57;;;;;;;27.70;19.30;;;;;;;6.81;100.00;100941.30;105982;1256;62354;-74
2024/03/28 01:00:26;;;;;;;26.40;18.20;;;;;;;6.82;100.00;100940.06;105724;1257;72752;-72
2024/03/28 01:02:52;;;;;;;26.50;19.60;;;;;;;6.81;100.00;100941.13;105765;1255;62080;-74
2024/03/28 01:05:20;;;;;;;24.90;18.20;;;;;;;6.81;100.00;100944.46;106403;1253;61136;-73
2024/03/28 01:07:47;;;;;;;21.60;16.50;;;;;;;6.82;100.00;100947.88;108302;1252;72145;-73
2024/03/28 01:10:14;;;;;;;23.50;17.00;;;;;;;6.82;100.00;100950.48;107131;1256;62636;-73
2024/03/28 01:12:41;;;;;;;29.80;18.90;;;;;;;6.81;100.00;100949.50;106251;1254;72673;-72
2024/03/28 01:15:09;;;;;;;25.30;18.80;;;;;;;6.81;100.00;100957.30;105878;1253;61215;-75
2024/03/28 01:17:36;;;;;;;22.60;17.50;;;;;;;6.80;100.00;100958.04;105815;1254;61292;-73
2024/03/28 01:20:06;;;;;;;27.80;18.20;;;;;;;6.78;100.00;100953.96;105865;1256;74529;-73
2024/03/28 01:22:33;;;;;;;24.80;17.50;;;;;;;6.74;100.00;100954.63;105820;1256;63900;-74
2024/03/28 01:25:00;;;;;;;25.10;17.20;;;;;;;6.69;100.00;100960.70;105788;1254;72462;-73
2024/03/28 01:27:27;;;;;;;21.20;16.00;;;;;;;6.65;100.00;100960.89;105830;1256;61771;-73
2024/03/28 01:29:53;;;;;;;25.40;17.70;;;;;;;6.63;100.00;100961.48;105779;1254;61218;-75
2024/03/28 01:32:20;;;;;;;22.20;16.80;;;;;;;6.61;100.00;100965.55;105826;1256;74696;-75
2024/03/28 01:34:47;;;;;;;26.20;17.50;;;;;;;6.59;100.00;100967.36;105961;1256;64293;-74
2024/03/28 01:37:15;;;;;;;21.40;17.40;;;;;;;6.57;100.00;100963.06;105698;1254;72659;-72
2024/03/28 01:39:41;;;;;;;25.90;17.70;;;;;;;6.56;100.00;100971.30;105738;1256;62010;-74
2024/03/28 01:42:08;;;;;;;24.60;18.70;;;;;;;6.56;100.00;100974.61;105756;1256;61244;-75
2024/03/28 01:44:35;;;;;;;19.30;15.60;;;;;;;6.57;100.00;100976.66;105748;1253;74683;-72
2024/03/28 01:47:06;;;;;;;22.70;17.00;;;;;;;6.57;100.00;100980.81;105857;1256;63924;-74
2024/03/28 01:49:52;;;;;;;25.70;16.20;;;;;;;6.56;100.00;100981.02;105847;1254;72664;-73
2024/03/28 01:52:19;;;;;;;22.00;16.80;;;;;;;6.54;100.00;100987.52;105671;1254;61644;-74
2024/03/28 01:54:47;;;;;;;26.60;18.00;;;;;;;6.52;100.00;100988.30;105831;1251;61208;-72
2024/03/28 01:57:15;;;;;;;21.40;16.60;;;;;;;6.51;100.00;100993.20;105841;1252;73122;-75
2024/03/28 01:59:41;;;;;;;21.70;15.30;;;;;;;6.47;100.00;100989.17;105846;1256;64035;-73
2024/03/28 02:02:09;;;;;;;21.10;16.20;;;;;;;6.41;100.00;100991.84;105848;1257;71250;-72
2024/03/28 02:04:36;;;;;;;19.30;15.10;;;;;;;6.35;100.00;100990.30;105907;1256;61185;-71
2024/03/28 02:07:03;;;;;;;20.20;14.50;;;;;;;6.32;100.00;100989.88;105794;1254;61244;-72
2024/03/28 02:09:30;;;;;;;20.90;14.10;;;;;;;6.31;100.00;100987.31;105823;1257;74719;-73
2024/03/28 02:11:58;;;;;;;25.40;15.40;;;;;;;6.31;100.00;100987.66;105797;1254;63947;-72
2024/03/28 02:14:24;;;;;;;20.60;13.60;;;;;;;6.30;100.00;100985.14;105904;1254;72467;-74
2024/03/28 02:16:51;;;;;;;15.70;12.20;;;;;;;6.29;100.00;100984.98;105806;1256;61138;-72
2024/03/28 02:19:18;;;;;;;19.80;13.20;;;;;;;6.30;100.00;100987.86;105712;1252;61254;-74
2024/03/28 02:21:46;;;;;;;16.70;12.00;;;;;;;6.32;100.00;100991.96;105686;1251;73344;-74
2024/03/28 02:24:13;;;;;;;16.50;11.20;;;;;;;6.35;100.00;100995.52;105751;1256;63648;-75
2024/03/28 02:26:39;;;;;;;20.80;14.10;;;;;;;6.35;100.00;100993.44;105864;1254;72717;-75
2024/03/28 02:29:06;;;;;;;19.50;13.80;;;;;;;6.35;100.00;100997.26;105793;1256;61215;-74
2024/03/28 02:31:33;;;;;;;22.80;15.10;;;;;;;6.36;100.00;100999.64;105744;1252;61317;-75
2024/03/28 02:34:00;;;;;;;22.80;15.40;;;;;;;6.39;100.00;100997.61;105731;1256;74417;-73
2024/03/28 02:36:27;;;;;;;23.10;15.20;;;;;;;6.45;100.00;100996.38;105804;1256;63778;-74
2024/03/28 02:38:54;;;;;;;23.50;15.60;;;;;;;6.49;100.00;100990.48;105849;1254;71712;-74
2024/03/28 02:41:21;;;;;;;22.10;16.10;;;;;;;6.51;100.00;100983.81;105831;1253;61828;-73
2024/03/28 02:43:48;;;;;;;25.70;17.80;;;;;;;6.52;100.00;100986.36;105839;1254;61352;-74
2024/03/28 02:46:14;;;;;;;24.50;16.40;;;;;;;6.52;100.00;100987.60;105730;1254;61445;-74
2024/03/28 02:48:42;;;;;;;31.50;17.20;;;;;;;6.50;100.00;100987.34;105842;1253;63736;-74
2024/03/28 02:51:08;;;;;;;26.60;18.10;;;;;;;6.47;100.00;100991.63;105764;1254;71169;-75
2024/03/28 02:53:35;;;;;;;27.30;16.90;;;;;;;6.46;100.00;100988.19;105815;1256;61215;-73
2024/03/28 02:56:03;;;;;;;25.30;16.40;;;;;;;6.46;100.00;100986.78;105877;1254;61289;-74
2024/03/28 02:58:30;;;;;;;32.40;18.10;;;;;;;6.45;100.00;100981.09;105554;1255;376363;-75
2024/03/28 03:02:10;;;;;;;30.10;17.50;;;;;;;6.47;100.00;100975.60;102553;1293;600703;-73
2024/03/28 03:04:37;;;;;;;26.70;16.60;;;;;;;6.42;100.00;100975.11;104863;1270;61145;-74
2024/03/28 03:07:05;;;;;;;27.70;16.20;;;;;;;6.40;100.00;100973.11;104894;1266;59981;-72
2024/03/28 03:09:32;;;;;;;23.90;15.30;;;;;;;6.38;100.00;100976.30;104927;1270;73136;-74
2024/03/28 03:12:00;;;;;;;21.30;14.70;;;;;;;6.38;100.00;100980.63;104858;1265;62819;-74
2024/03/28 03:14:28;;;;;;;20.00;12.40;;;;;;;6.39;100.00;100977.45;104954;1270;72630;-76
2024/03/28 03:16:55;;;;;;;21.80;13.70;;;;;;;6.37;100.00;100978.94;104801;1269;205907;-73
2024/03/28 03:19:23;;;;;;;22.10;12.60;;;;;;;6.35;100.00;100976.60;105005;1264;60458;-74
2024/03/28 03:21:52;;;;;;;19.20;12.40;;;;;;;6.34;100.00;100978.88;104963;1264;73026;-73
2024/03/28 03:24:19;;;;;;;18.30;13.40;;;;;;;6.35;100.00;100979.17;105713;1257;63154;-75
2024/03/28 03:26:49;;;;;;;19.10;13.40;;;;;;;6.37;100.00;100978.09;105731;1257;72213;-74
2024/03/28 03:34:49;;;;;;;18.20;12.50;;;;;;;6.27;100.00;100965.77;105823;1254;72548;-74
2024/03/28 03:37:21;;;;;;;18.50;12.40;;;;;;;6.24;100.00;100970.21;105959;1255;62505;-73
2024/03/28 03:39:55;;;;;;;17.60;12.00;;;;;;;6.21;100.00;100968.42;105699;1257;73176;-74
2024/03/28 03:42:23;;;;;;;17.10;11.70;;;;;;;6.21;100.00;100970.66;105815;1253;60898;-74
2024/03/28 03:44:50;;;;;;;16.70;12.10;;;;;;;6.22;100.00;100970.13;105737;1256;60444;-76
2024/03/28 03:47:17;;;;;;;17.70;12.70;;;;;;;6.23;100.00;100968.50;105742;1254;74158;-75
2024/03/28 03:49:45;;;;;;;18.50;13.30;;;;;;;6.27;100.00;100973.07;105771;1256;62764;-75
2024/03/28 03:52:14;;;;;;;17.40;11.30;;;;;;;6.33;100.00;100973.73;105749;1253;71457;-75
2024/03/28 03:54:42;;;;;;;15.50;11.30;;;;;;;6.36;100.00;100970.11;105837;1257;60511;-77
2024/03/28 03:57:09;;;;;;;17.40;11.20;;;;;;;6.40;100.00;100972.75;105736;1257;60400;-74
2024/03/28 03:59:37;;;;;;;13.00;9.80;;;;;;;6.45;100.00;100975.52;106923;1257;73738;-74
2024/03/28 04:02:05;;;;;;;15.90;11.20;;;;;;;6.46;100.00;100976.72;106893;1257;62286;-74
2024/03/28 04:04:33;;;;;;;18.30;11.20;;;;;;;6.47;100.00;100979.46;105797;1254;73456;-76
2024/03/28 04:07:00;;;;;;;21.00;13.60;;;;;;;6.47;100.00;100979.80;105740;1253;61710;-74
2024/03/28 04:09:27;;;;;;;18.30;11.70;;;;;;;6.49;100.00;100984.07;105775;1256;62082;-75
2024/03/28 04:11:55;;;;;;;18.80;12.00;;;;;;;6.50;100.00;100986.78;105719;1253;72870;-76
2024/03/28 04:26:10;;;;;;;22.00;13.10;;;;;;;6.45;100.00;100989.92;102837;1292;600476;-76
2024/03/28 04:28:38;;;;;;;21.00;13.80;;;;;;;6.44;100.00;100995.02;104911;1270;61665;-75
2024/03/28 04:31:06;;;;;;;22.40;12.60;;;;;;;6.50;100.00;100998.79;104876;1270;59735;-74
2024/03/28 04:33:34;;;;;;;19.00;12.10;;;;;;;6.54;100.00;100994.10;104865;1267;71664;-73
2024/03/28 04:36:01;;;;;;;17.80;12.50;;;;;;;6.57;100.00;100998.52;104901;1270;62363;-74
2024/03/28 04:38:31;;;;;;;17.70;12.50;;;;;;;6.63;100.00;100996.76;104641;1267;71693;-76
2024/03/28 04:41:01;;;;;;;21.30;13.60;;;;;;;6.71;100.00;100994.89;104826;1263;225836;-76
2024/03/28 04:43:30;;;;;;;17.50;12.20;;;;;;;6.74;100.00;100995.10;105150;1263;59727;-77
2024/03/28 04:45:57;;;;;;;23.90;14.90;;;;;;;6.76;100.00;100989.45;105003;1268;72350;-75
2024/03/28 04:48:24;;;;;;;21.30;13.00;;;;;;;6.81;100.00;100986.13;105025;1264;62597;-75
2024/03/28 04:50:52;;;;;;;17.10;12.70;;;;;;;6.91;100.00;100987.37;105081;1270;71453;-76
2024/03/28 04:53:19;;;;;;;17.10;12.50;;;;;;;6.98;100.00;100989.83;105090;1267;60534;-75
2024/03/28 04:55:47;;;;;;;17.20;11.40;;;;;;;7.02;100.00;100990.20;105468;1257;60578;-74
2024/03/28 04:58:15;;;;;;;19.30;11.10;;;;;;;7.07;100.00;100986.70;105393;1257;72613;-74
2024/03/28 05:00:42;;;;;;;14.20;9.70;;;;;;;7.13;100.00;100987.88;105576;1257;63701;-74
2024/03/28 05:03:10;;;;;;;14.10;10.40;;;;;;;7.22;100.00;100983.35;105772;1257;71426;-74
2024/03/28 05:05:37;;;;;;;14.70;11.40;;;;;;;7.38;100.00;100981.48;105600;1259;60623;-75
2024/03/28 05:08:05;;;;;;;15.60;11.40;;;;;;;7.64;100.00;100974.30;105625;1259;60534;-76
2024/03/28 05:10:37;;;;;;;20.20;13.10;;;;;;;7.89;100.00;100972.36;105618;1256;73923;-77
2024/03/28 05:13:05;;;;;;;20.70;13.50;;;;;;;8.15;100.00;100975.56;105604;1255;62602;-77
2024/03/28 05:15:32;;;;;;;23.30;16.90;;;;;;;8.34;100.00;100974.39;105714;1256;72143;-73
2024/03/28 05:17:59;;;;;;;23.80;17.80;;;;;;;8.50;100.00;100977.02;105622;1261;60518;-76
2024/03/28 05:20:26;;;;;;;30.60;20.10;;;;;;;8.58;100.00;100982.41;105704;1254;60577;-75
2024/03/28 05:22:53;;;;;;;37.90;22.90;;;;;;;8.63;100.00;100982.70;105697;1254;71786;-73
2024/03/28 05:25:21;;;;;;;38.10;25.10;;;;;;;8.65;100.00;100982.44;105583;1256;62467;-75
2024/03/28 05:27:48;;;;;;;41.80;28.00;;;;;;;8.68;100.00;100984.41;105642;1258;71379;-73
2024/03/28 05:30:15;;;;;;;43.80;29.40;;;;;;;8.78;100.00;100989.35;105585;1259;60481;-76
2024/03/28 05:32:43;;;;;;;50.60;32.80;;;;;;;8.93;100.00;100989.51;105537;1259;60343;-75
2024/03/28 05:35:11;;;;;;;50.20;29.60;;;;;;;9.10;100.00;100989.73;105494;1257;73029;-76
2024/03/28 05:37:38;;;;;;;51.10;29.70;;;;;;;9.35;100.00;100991.15;105701;1255;62388;-76
2024/03/28 05:40:06;;;;;;;47.60;30.60;;;;;;;9.57;100.00;100990.76;105491;1259;72709;-74
2024/03/28 05:42:34;;;;;;;45.00;30.80;;;;;;;9.86;100.00;100992.27;105635;1254;60424;-75
2024/03/28 05:45:02;;;;;;;44.30;27.90;;;;;;;10.07;100.00;100994.02;105554;1259;60509;-75
2024/03/28 05:47:30;;;;;;;39.50;26.90;;;;;;;10.20;100.00;100994.22;105557;1259;73924;-77
2024/03/28 05:49:57;;;;;;;41.90;28.50;;;;;;;10.31;100.00;100997.98;105710;1257;62292;-75
2024/03/28 05:52:24;;;;;;;39.70;26.90;;;;;;;10.46;100.00;100999.88;105517;1259;72699;-74
2024/03/28 05:54:52;;;;;;;35.70;25.40;;;;;;;10.66;100.00;100998.73;105500;1256;61623;-75
2024/03/28 05:57:19;;;;;;;37.80;25.70;;;;;;;10.91;100.00;100998.61;105582;1254;61083;-76
2024/03/28 05:59:47;;;;;;;34.40;23.30;;;;;;;11.21;100.00;100991.16;105520;1259;73899;-75
2024/03/28 06:02:14;;;;;;;29.10;22.10;;;;;;;11.65;100.00;100990.55;105605;1259;64035;-75
2024/03/28 06:04:43;;;;;;;32.40;23.50;;;;;;;12.06;100.00;100988.51;105606;1254;73480;-75
2024/03/28 06:07:11;;;;;;;30.70;22.50;;;;;;;12.30;100.00;100990.57;105389;1257;60607;-76
2024/03/28 06:09:38;;;;;;;33.70;22.90;;;;;;;12.48;100.00;100989.44;105592;1257;60505;-75
2024/03/28 06:12:06;;;;;;;29.50;21.70;;;;;;;12.72;100.00;100996.91;105550;1254;73781;-76
2024/03/28 06:14:36;;;;;;;29.60;21.30;;;;;;;13.01;100.00;100996.67;105590;1254;63684;-76
2024/03/28 06:17:04;;;;;;;29.60;21.50;;;;;;;13.18;100.00;101000.16;105539;1259;72751;-77
2024/03/28 06:19:32;;;;;;;27.60;20.00;;;;;;;13.24;100.00;100997.80;105537;1256;60560;-78
2024/03/28 06:21:59;;;;;;;24.00;19.20;;;;;;;13.34;100.00;100995.42;105731;1255;60363;-76
2024/03/28 06:24:27;;;;;;;28.30;21.10;;;;;;;13.51;100.00;100992.02;105569;1254;72872;-75
2024/03/28 06:26:54;;;;;;;23.40;17.00;;;;;;;13.81;100.00;100992.81;106033;1254;63805;-77
2024/03/28 06:29:21;;;;;;;26.20;17.90;;;;;;;14.09;100.00;100988.33;106155;1254;71329;-74
2024/03/28 06:31:51;;;;;;;21.80;18.00;;;;;;;14.34;100.00;100993.63;106149;1259;60418;-74
2024/03/28 06:34:18;;;;;;;20.70;15.70;;;;;;;14.66;100.00;100992.63;106436;1254;60440;-75
2024/03/28 06:36:46;;;;;;;18.70;14.30;;;;;;;15.04;100.00;100984.20;105638;1254;74263;-77
2024/03/28 06:39:14;;;;;;;15.90;13.30;;;;;;;15.42;100.00;100987.42;105639;1259;63826;-76
2024/03/28 06:41:41;;;;;;;17.50;14.60;;;;;;;15.62;100.00;100982.92;106068;1259;74135;-75
2024/03/28 06:44:09;;;;;;;19.90;13.40;;;;;;;15.70;98.10;100982.15;105667;1256;60607;-78
2024/03/28 06:46:36;;;;;;;19.20;13.50;;;;;;;15.79;95.92;100980.45;105762;1254;62659;-74
2024/03/28 06:49:04;;;;;;;18.30;13.00;;;;;;;15.93;95.35;100976.20;105908;1259;73786;-76
2024/03/28 06:51:31;;;;;;;18.80;15.60;;;;;;;16.14;88.77;100976.54;106832;1254;63732;-75
2024/03/28 06:53:58;;;;;;;17.90;14.00;;;;;;;16.19;85.56;100980.60;106311;1257;71967;-76
2024/03/28 06:56:25;;;;;;;23.60;14.90;;;;;;;16.22;87.51;100979.08;105548;1257;60539;-76
2024/03/28 06:58:53;;;;;;;24.00;18.00;;;;;;;16.26;80.79;100978.95;105610;1254;60448;-77
2024/03/28 07:01:21;;;;;;;21.60;17.80;;;;;;;16.10;81.92;100978.81;105537;1254;74839;-77
2024/03/28 07:03:50;;;;;;;24.20;18.00;;;;;;;16.08;83.46;100979.51;105664;1254;61919;-79
2024/03/28 07:06:17;;;;;;;22.80;17.80;;;;;;;16.19;81.71;100976.83;105534;1256;73274;-76
2024/03/28 07:08:48;;;;;;;21.00;15.30;;;;;;;16.39;78.54;100972.97;105710;1259;60386;-77
2024/03/28 07:11:15;;;;;;;19.00;14.50;;;;;;;16.69;75.36;100970.63;105585;1259;60535;-77
2024/03/28 07:13:42;;;;;;;21.60;13.90;;;;;;;17.02;72.27;100968.00;105559;1254;74004;-74
2024/03/28 07:16:10;;;;;;;20.00;12.70;;;;;;;17.41;67.22;100974.50;105678;1254;62580;-76
2024/03/28 07:18:38;;;;;;;22.80;12.60;;;;;;;17.75;64.52;100974.65;105721;1254;72896;-76
2024/03/28 07:21:06;;;;;;;16.60;12.50;;;;;;;18.16;60.89;100974.53;105568;1257;60418;-77
2024/03/28 07:23:33;;;;;;;14.40;12.80;;;;;;;18.55;60.41;100966.96;105600;1259;61124;-76
2024/03/28 07:26:00;;;;;;;16.70;11.80;;;;;;;19.00;56.95;100969.09;105491;1259;75900;-76
2024/03/28 07:28:28;;;;;;;17.00;11.20;;;;;;;19.33;54.77;100959.96;105717;1259;63479;-76
2024/03/28 07:30:55;;;;;;;14.10;11.10;;;;;;;19.65;53.42;100955.99;105613;1254;72718;-76
2024/03/28 07:33:22;;;;;;;13.60;11.30;;;;;;;20.01;51.49;100945.83;105580;1259;60470;-77
2024/03/28 07:35:50;;;;;;;19.60;11.10;;;;;;;20.39;50.24;100940.15;105541;1254;60483;-77
2024/03/28 07:38:18;;;;;;;20.50;10.40;;;;;;;20.64;46.97;100936.98;105545;1254;75732;-77
2024/03/28 07:40:49;;;;;;;16.60;8.30;;;;;;;20.77;46.44;100936.48;105586;1254;66327;-76
2024/03/28 07:43:17;;;;;;;22.70;9.10;;;;;;;20.84;44.46;100941.22;105587;1254;75463;-77
2024/03/28 07:45:45;;;;;;;8.40;7.00;;;;;;;20.77;44.80;100932.48;105730;1254;61630;-77
2024/03/28 07:48:12;;;;;;;13.00;6.90;;;;;;;20.73;44.19;100929.37;105556;1259;60384;-77
2024/03/28 07:50:40;;;;;;;7.80;6.20;;;;;;;20.83;43.89;100925.04;105366;1254;75857;-76
2024/03/28 07:53:08;;;;;;;17.10;7.00;;;;;;;21.00;44.31;100924.17;105572;1255;62027;-76
2024/03/28 07:55:35;;;;;;;16.70;7.20;;;;;;;21.35;43.80;100917.30;105845;1256;74948;-76
2024/03/28 07:58:03;;;;;;;12.30;7.20;;;;;;;21.62;42.27;100908.52;105767;1253;60426;-77
2024/03/28 08:00:31;;;;;;;8.70;6.30;;;;;;;21.85;42.67;100908.74;105753;1255;60487;-77
2024/03/28 08:02:59;;;;;;;9.60;6.30;;;;;;;22.26;41.87;100916.03;105836;1256;73562;-76
2024/03/28 08:05:26;;;;;;;11.30;6.00;;;;;;;22.61;39.49;100903.80;105888;1251;63968;-77
2024/03/28 08:07:54;;;;;;;8.80;6.10;;;;;;;22.84;38.79;100900.63;105826;1251;73400;-75
2024/03/28 08:10:21;;;;;;;14.80;7.30;;;;;;;23.04;37.21;100894.92;105850;1257;62394;-77
2024/03/28 08:12:50;;;;;;;11.50;6.90;;;;;;;23.10;36.77;100895.70;105880;1251;60524;-77
2024/03/28 08:15:18;;;;;;;10.00;6.10;;;;;;;23.26;36.08;100890.23;105829;1255;74304;-75
2024/03/28 08:17:45;;;;;;;13.20;6.60;;;;;;;23.27;35.69;100881.88;105803;1251;63489;-76
2024/03/28 08:20:16;;;;;;;8.20;6.00;;;;;;;23.24;35.44;100878.20;105818;1251;74825;-77
2024/03/28 08:22:43;;;;;;;11.70;6.10;;;;;;;23.28;35.35;100869.50;105873;1257;60528;-75
2024/03/28 08:25:10;;;;;;;12.00;6.60;;;;;;;23.34;34.85;100860.42;105869;1251;62394;-75
2024/03/28 08:27:38;;;;;;;15.20;6.10;;;;;;;23.26;34.80;100861.48;105821;1251;75445;-75
2024/03/28 08:30:06;;;;;;;8.20;4.40;;;;;;;23.31;34.51;100855.61;105933;1251;63028;-76
2024/03/28 08:32:34;;;;;;;6.60;5.60;;;;;;;23.53;34.25;100847.80;106045;1252;74323;-76
2024/03/28 08:35:02;;;;;;;12.60;6.10;;;;;;;23.71;33.47;100843.14;106005;1251;61261;-74
2024/03/28 08:37:30;;;;;;;10.20;5.80;;;;;;;23.69;33.09;100839.55;106017;1253;61247;-74
2024/03/28 08:39:58;;;;;;;6.40;4.90;;;;;;;23.65;32.99;100838.63;106071;1251;74749;-75
2024/03/28 08:42:25;;;;;;;8.10;4.60;;;;;;;23.59;33.09;100833.20;106114;1257;65862;-74
2024/03/28 08:44:56;;;;;;;9.30;4.20;;;;;;;23.64;32.52;100839.30;106102;1255;74019;-74
2024/03/28 08:47:23;;;;;;;7.90;4.10;;;;;;;23.73;31.92;100829.15;106338;1255;61334;-74
2024/03/28 08:49:51;;;;;;;9.00;4.10;;;;;;;23.75;31.65;100824.46;106488;1251;61264;-75
2024/03/28 08:52:19;;;;;;;7.70;3.90;;;;;;;23.68;31.85;100819.75;106883;1251;77029;-75
2024/03/28 08:54:46;;;;;;;12.30;4.10;;;;;;;23.68;31.66;100815.19;106664;1256;63141;-73
2024/03/28 08:57:14;;;;;;;8.60;3.50;;;;;;;23.63;31.36;100814.98;106309;1254;71675;-76
2024/03/28 08:59:42;;;;;;;8.90;4.00;;;;;;;23.49;31.59;100811.44;105936;1251;61337;-76
2024/03/28 09:02:10;;;;;;;8.50;2.80;;;;;;;23.52;31.12;100805.38;105930;1251;61285;-74
2024/03/28 09:04:38;;;;;;;7.80;3.70;;;;;;;23.59;31.01;100796.58;105824;1255;75099;-76
2024/03/28 09:07:05;;;;;;;4.50;3.40;;;;;;;23.66;30.87;100798.33;105871;1251;62501;-74
2024/03/28 09:09:35;;;;;;;6.40;4.10;;;;;;;23.67;30.48;100789.69;105769;1251;71954;-76
2024/03/28 09:12:03;;;;;;;5.60;3.20;;;;;;;23.66;30.17;100787.61;105954;1254;61407;-75
2024/03/28 09:14:30;;;;;;;13.80;4.60;;;;;;;23.62;30.05;100795.36;106428;1255;61281;-74
2024/03/28 09:16:58;;;;;;;13.90;3.80;;;;;;;23.71;29.52;100783.85;106108;1255;76471;-76
2024/03/28 09:19:27;;;;;;;27.40;3.90;;;;;;;23.70;29.00;100783.38;109608;1251;64553;-75
2024/03/28 09:21:55;;;;;;;19.00;3.90;;;;;;;23.45;29.26;100778.19;109647;1251;73218;-76
2024/03/28 09:24:22;;;;;;;7.50;3.90;;;;;;;23.25;29.49;100773.98;109597;1251;60167;-73
2024/03/28 09:26:49;;;;;;;11.20;2.90;;;;;;;23.16;29.86;100775.13;109714;1251;61025;-76
2024/03/28 09:29:20;;;;;;;6.70;2.60;;;;;;;23.20;30.11;100772.64;109615;1251;73644;-75
2024/03/28 09:31:50;;;;;;;9.40;3.10;;;;;;;23.48;30.48;100767.67;109671;1251;64029;-74
2024/03/28 09:34:18;;;;;;;13.50;4.30;;;;;;;23.82;29.74;100767.06;109591;1251;73801;-75
2024/03/28 09:36:46;;;;;;;8.00;2.80;;;;;;;23.91;29.33;100763.56;109608;1251;59977;-76
2024/03/28 09:39:14;;;;;;;12.30;2.80;;;;;;;23.77;29.87;100759.75;109653;1251;61380;-75
2024/03/28 09:41:46;;;;;;;16.20;3.60;;;;;;;23.68;29.50;100755.24;109626;1251;75799;-75
2024/03/28 09:44:22;;;;;;;7.70;2.60;;;;;;;23.42;29.71;100751.91;109649;1251;64614;-75
2024/03/28 09:46:49;;;;;;;4.50;2.60;;;;;;;23.28;30.31;100746.77;109671;1251;74892;-75
2024/03/28 09:49:23;;;;;;;5.00;2.30;;;;;;;23.36;30.48;100747.27;109604;1251;58972;-74
2024/03/28 09:51:52;;;;;;;6.90;2.20;;;;;;;23.39;30.06;100742.83;109618;1251;61263;-76
2024/03/28 09:54:19;;;;;;;6.30;2.00;;;;;;;23.25;30.54;100738.69;109525;1251;73184;-77
2024/03/28 09:56:47;;;;;;;6.70;1.60;;;;;;;23.36;30.63;100735.69;109438;1251;64315;-77
2024/03/28 09:59:14;;;;;;;7.80;2.10;;;;;;;23.46;29.82;100731.89;109600;1251;72641;-76
2024/03/28 10:01:42;;;;;;;8.00;2.10;;;;;;;23.43;30.30;100730.42;109475;1251;61833;-79
2024/03/28 10:04:11;;;;;;;3.80;1.60;;;;;;;23.45;30.22;100728.41;109498;1251;60555;-76
2024/03/28 10:06:55;;;;;;;4.90;1.70;;;;;;;23.45;30.18;100730.34;109599;1251;75278;-76
2024/03/28 10:09:22;;;;;;;9.50;2.00;;;;;;;23.59;29.92;100724.70;109642;1251;64750;-74
2024/03/28 10:11:50;;;;;;;11.30;3.40;;;;;;;23.84;29.81;100727.80;109619;1251;73231;-74
2024/03/28 10:14:19;;;;;;;9.70;2.20;;;;;;;24.00;29.58;100724.63;109666;1251;59885;-76
2024/03/28 10:16:48;;;;;;;12.50;3.20;;;;;;;24.18;29.14;100713.63;109621;1251;61116;-76
2024/03/28 10:19:17;;;;;;;9.20;2.90;;;;;;;24.34;28.73;100713.94;109550;1251;76679;-78
2024/03/28 10:21:45;;;;;;;4.20;2.80;;;;;;;24.43;28.55;100713.27;109649;1251;62722;-77
2024/03/28 10:24:19;;;;;;;9.50;2.90;;;;;;;24.59;28.15;100710.10;109619;1251;72440;-75
2024/03/28 10:26:47;;;;;;;5.70;2.60;;;;;;;24.62;27.74;100709.30;109660;1251;59461;-75
2024/03/28 10:29:16;;;;;;;6.10;2.30;;;;;;;24.51;27.73;100712.55;109656;1252;60817;-77
2024/03/28 10:31:43;;;;;;;4.90;2.40;;;;;;;24.32;27.71;100707.02;109613;1251;74331;-76
2024/03/28 10:34:14;;;;;;;5.00;1.90;;;;;;;24.21;28.00;100703.31;109375;1251;63705;-75
2024/03/28 10:36:42;;;;;;;5.70;1.60;;;;;;;24.11;27.86;100701.21;109617;1251;72571;-75
2024/03/28 10:39:10;;;;;;;8.30;1.90;;;;;;;23.95;27.83;100705.21;109605;1252;61979;-74
2024/03/28 10:41:42;;;;;;;9.20;2.90;;;;;;;23.80;28.31;100703.92;109648;1252;58916;-76
2024/03/28 10:44:10;;;;;;;4.20;2.20;;;;;;;23.70;27.93;100705.05;109595;1251;74334;-77
2024/03/28 10:46:39;;;;;;;5.30;3.10;;;;;;;23.69;27.99;100701.22;109634;1251;63446;-77
2024/03/28 10:49:06;;;;;;;8.40;3.10;;;;;;;23.79;27.38;100692.73;109669;1251;71783;-75
2024/03/28 10:51:52;;;;;;;12.80;3.20;;;;;;;23.76;27.22;100704.31;109579;1253;61002;-77
2024/03/28 10:54:25;;;;;;;8.00;2.80;;;;;;;23.73;27.72;100693.06;109542;1254;59761;-75
2024/03/28 10:56:54;;;;;;;7.50;2.40;;;;;;;23.88;27.68;100694.98;109584;1251;74403;-76
2024/03/28 10:59:21;;;;;;;8.30;2.90;;;;;;;23.95;27.19;100686.78;109682;1251;65251;-75
2024/03/28 11:01:48;;;;;;;5.90;2.70;;;;;;;23.97;27.27;100681.62;109666;1251;72566;-76
2024/03/28 11:04:16;;;;;;;6.60;3.20;;;;;;;24.08;27.11;100686.43;109647;1251;58983;-75
2024/03/28 11:06:44;;;;;;;4.90;2.20;;;;;;;24.06;26.88;100684.51;109620;1251;59300;-76
2024/03/28 11:09:13;;;;;;;7.20;2.40;;;;;;;24.12;26.23;100681.15;109589;1251;74454;-76
2024/03/28 11:11:40;;;;;;;12.10;2.80;;;;;;;24.19;24.97;100679.25;109518;1251;62756;-76
2024/03/28 11:14:08;;;;;;;8.90;2.70;;;;;;;24.15;24.59;100679.67;109593;1251;71950;-76
2024/03/28 11:16:35;;;;;;;5.50;2.30;;;;;;;24.13;24.53;100671.77;109576;1253;59415;-76
2024/03/28 11:19:03;;;;;;;14.20;2.10;;;;;;;24.13;24.44;100666.93;109623;1251;61327;-76
2024/03/28 11:21:32;;;;;;;4.70;1.60;;;;;;;24.13;24.57;100671.36;109618;1251;75038;-76
2024/03/28 11:24:01;;;;;;;5.70;1.70;;;;;;;24.17;24.27;100667.27;109608;1251;63681;-76
2024/03/28 11:26:28;;;;;;;4.60;1.10;;;;;;;24.24;24.27;100662.77;109590;1251;71426;-75